Time;durP1;ratioP1;P1;durP2;ratioP2;P2;SDS_P1;SDS_P2;PMS_P1;PMS_P2;Temp;Humidity;BMP_temperature;BMP_pressure;BME280_temperature;BME280_humidity;BME280_pressure;Samples;Min_cycle;Max_cycle;Signal;HPM_P1;HPM_P2
2021/01/03 00:00:39;;;;;;;15.27;12.47;;;5.90;89.30;;;;;;5107408;28;20260;-84
2021/01/03 00:03:08;;;;;;;17.98;15.93;;;5.80;90.20;;;;;;5109632;28;20519;-86
2021/01/03 00:05:34;;;;;;;24.38;19.42;;;5.90;89.30;;;;;;5109932;28;20210;-85
2021/01/03 00:08:09;;;;;;;16.93;12.30;;;5.90;89.10;;;;;;5108213;28;20172;-85
2021/01/03 00:10:34;;;;;;;14.75;11.68;;;5.90;89.70;;;;;;5108926;28;20202;-84
2021/01/03 00:13:00;;;;;;;14.23;11.90;;;5.80;89.60;;;;;;5108390;28;20703;-85
2021/01/03 00:15:25;;;;;;;12.77;10.90;;;5.80;89.90;;;;;;5106570;28;20182;-84
2021/01/03 00:18:00;;;;;;;14.00;12.40;;;5.80;90.00;;;;;;5110729;28;20651;-84
2021/01/03 00:20:28;;;;;;;16.02;13.57;;;5.80;90.00;;;;;;5108201;28;20167;-85
2021/01/03 00:22:54;;;;;;;14.90;11.80;;;5.80;90.10;;;;;;5108547;28;20180;-85
2021/01/03 00:25:28;;;;;;;16.55;13.40;;;5.70;90.20;;;;;;5108192;28;20167;-85
2021/01/03 00:27:55;;;;;;;14.75;12.65;;;5.80;90.10;;;;;;5107547;28;20176;-85
2021/01/03 00:30:28;;;;;;;17.58;12.98;;;5.70;90.40;;;;;;5108538;28;20695;-84
2021/01/03 00:32:55;;;;;;;14.98;12.27;;;5.70;90.60;;;;;;5110600;28;20248;-85
2021/01/03 00:35:27;;;;;;;29.42;17.70;;;5.70;90.60;;;;;;5110557;28;20636;-85
2021/01/03 00:38:03;;;;;;;38.08;24.45;;;5.60;90.60;;;;;;5110582;28;20593;-85
2021/01/03 00:40:30;;;;;;;46.53;31.63;;;5.60;90.80;;;;;;5111133;28;20186;-86
2021/01/03 00:42:59;;;;;;;32.20;27.55;;;5.50;91.00;;;;;;5110989;28;20604;-85
2021/01/03 00:45:28;;;;;;;21.25;18.30;;;5.50;91.00;;;;;;5111573;28;20178;-85
2021/01/03 00:47:54;;;;;;;16.00;11.10;;;5.50;91.10;;;;;;5111862;28;20630;-85
2021/01/03 00:50:23;;;;;;;16.83;12.82;;;5.50;90.90;;;;;;5112132;28;20247;-85
2021/01/03 00:52:48;;;;;;;22.98;16.05;;;5.50;91.10;;;;;;5109430;28;20621;-84
2021/01/03 00:55:14;;;;;;;22.67;16.13;;;5.40;91.50;;;;;;5110806;28;20294;-85
2021/01/03 00:57:42;;;;;;;33.20;20.73;;;5.30;91.60;;;;;;5111391;28;20191;-86
2021/01/03 01:00:13;;;;;;;36.55;22.13;;;5.30;91.80;;;;;;5111842;28;20186;-85
2021/01/03 01:02:49;;;;;;;18.90;12.80;;;5.30;91.80;;;;;;5109907;28;20211;-85
2021/01/03 01:05:15;;;;;;;17.10;11.65;;;5.40;91.80;;;;;;5111095;28;20619;-85
2021/01/03 01:07:47;;;;;;;13.93;11.32;;;5.30;92.10;;;;;;5112954;28;20253;-85
2021/01/03 01:10:16;;;;;;;14.82;11.82;;;5.30;91.90;;;;;;5112433;28;20148;-85
2021/01/03 01:12:45;;;;;;;16.95;13.38;;;5.30;92.20;;;;;;5110823;28;20188;-85
2021/01/03 01:15:17;;;;;;;17.73;12.80;;;5.20;92.10;;;;;;5110502;28;20183;-85
2021/01/03 01:17:53;;;;;;;13.75;10.90;;;5.20;92.30;;;;;;5112058;28;20180;-85
2021/01/03 01:20:20;;;;;;;11.25;10.02;;;5.20;92.50;;;;;;5108986;28;20186;-85
2021/01/03 01:22:46;;;;;;;11.57;10.20;;;5.30;92.40;;;;;;5109980;28;20270;-85
2021/01/03 01:25:15;;;;;;;14.37;11.73;;;5.30;92.50;;;;;;5111566;28;20259;-85
2021/01/03 01:27:46;;;;;;;15.13;9.90;;;5.30;92.50;;;;;;5110808;28;20215;-83
2021/01/03 01:30:25;;;;;;;14.90;10.50;;;5.30;92.60;;;;;;5112091;28;20635;-83
2021/01/03 01:32:52;;;;;;;13.88;10.60;;;5.30;92.60;;;;;;5110873;28;20496;-82
2021/01/03 01:35:21;;;;;;;11.85;10.13;;;5.30;92.70;;;;;;5111044;27;20175;-83
2021/01/03 01:37:48;;;;;;;12.23;10.05;;;5.30;92.60;;;;;;5109071;28;20194;-83
2021/01/03 01:40:17;;;;;;;12.82;9.93;;;5.30;92.80;;;;;;5111526;28;20172;-83
2021/01/03 01:42:50;;;;;;;15.13;10.05;;;5.40;92.70;;;;;;5109562;28;20199;-83
2021/01/03 01:45:32;;;;;;;14.65;11.98;;;5.40;92.80;;;;;;5111188;28;20617;-84
2021/01/03 01:48:16;;;;;;;10.57;9.02;;;5.40;92.70;;;;;;5112663;28;20539;-83
2021/01/03 01:50:58;;;;;;;16.08;10.57;;;5.50;92.60;;;;;;5111656;28;20235;-83
2021/01/03 01:53:33;;;;;;;15.93;11.15;;;5.50;92.70;;;;;;5108068;28;20234;-83
2021/01/03 01:56:20;;;;;;;13.88;9.95;;;5.50;92.80;;;;;;5109621;28;20202;-83
2021/01/03 01:59:13;;;;;;;16.67;10.88;;;5.50;92.70;;;;;;5110680;28;20191;-83
2021/01/03 02:02:05;;;;;;;13.00;10.40;;;5.60;92.90;;;;;;5110264;28;20183;-83
2021/01/03 02:04:41;;;;;;;13.80;11.38;;;5.60;92.70;;;;;;5111192;28;20195;-83
2021/01/03 02:07:24;;;;;;;13.32;10.85;;;5.60;92.50;;;;;;5111650;27;20207;-84
2021/01/03 02:10:30;;;;;;;12.02;10.43;;;5.60;92.50;;;;;;5110413;28;20156;-83
2021/01/03 02:13:11;;;;;;;12.55;10.63;;;5.70;92.60;;;;;;5110720;28;20232;-83
2021/01/03 02:15:41;;;;;;;15.27;11.52;;;5.60;92.80;;;;;;5110571;28;20251;-83
2021/01/03 02:18:10;;;;;;;15.70;11.73;;;5.70;92.90;;;;;;5112510;28;20176;-83
2021/01/03 02:20:57;;;;;;;16.08;12.43;;;5.60;93.10;;;;;;5110084;28;20180;-83
2021/01/03 02:23:55;;;;;;;14.52;11.10;;;5.70;93.30;;;;;;5110045;28;20299;-83
2021/01/03 02:26:30;;;;;;;15.48;11.30;;;5.70;93.30;;;;;;5108668;28;20212;-84
2021/01/03 02:28:57;;;;;;;12.50;10.75;;;5.70;93.40;;;;;;5111158;28;20180;-83
2021/01/03 02:31:36;;;;;;;17.38;12.70;;;5.80;93.40;;;;;;5112055;28;20255;-84
2021/01/03 02:34:09;;;;;;;19.25;13.77;;;5.80;93.20;;;;;;5111893;28;20245;-83
2021/01/03 02:36:43;;;;;;;15.25;11.75;;;5.80;93.50;;;;;;5109675;28;20179;-83
2021/01/03 02:39:39;;;;;;;17.58;15.10;;;5.80;93.70;;;;;;5112098;28;20228;-84
2021/01/03 02:42:32;;;;;;;17.48;13.93;;;6.00;93.50;;;;;;5109983;28;20263;-83
2021/01/03 02:44:59;;;;;;;16.65;14.75;;;6.00;93.60;;;;;;5108252;28;20191;-83
2021/01/03 02:47:28;;;;;;;20.08;16.40;;;6.00;93.60;;;;;;5109264;28;20216;-84
2021/01/03 02:49:54;;;;;;;16.38;13.00;;;6.00;93.60;;;;;;5109149;28;20171;-85
2021/01/03 02:52:44;;;;;;;20.23;14.77;;;5.80;94.30;;;;;;5109509;28;20685;-84
2021/01/03 02:55:14;;;;;;;18.83;14.98;;;5.80;94.40;;;;;;5110200;28;20646;-84
2021/01/03 02:57:40;;;;;;;15.75;12.77;;;5.80;94.20;;;;;;5107736;28;20256;-84
2021/01/03 03:00:08;;;;;;;16.20;14.07;;;5.80;94.30;;;;;;5108900;28;20616;-84
2021/01/03 03:02:34;;;;;;;17.63;14.00;;;5.90;94.20;;;;;;5109187;28;20547;-84
2021/01/03 03:05:03;;;;;;;20.40;15.00;;;5.90;94.30;;;;;;5111098;27;20250;-84
2021/01/03 03:07:31;;;;;;;21.48;14.90;;;5.90;94.40;;;;;;5109793;28;20269;-84
2021/01/03 03:09:57;;;;;;;16.40;13.82;;;5.90;94.60;;;;;;5109433;28;20188;-84
2021/01/03 03:12:25;;;;;;;20.10;14.20;;;5.80;95.00;;;;;;5108690;28;20771;-83
2021/01/03 03:14:51;;;;;;;21.55;14.18;;;5.90;95.00;;;;;;5108968;28;20176;-85
2021/01/03 03:17:16;;;;;;;22.83;15.47;;;5.80;95.30;;;;;;5108201;28;20199;-84
2021/01/03 03:19:45;;;;;;;16.60;13.57;;;5.80;95.70;;;;;;5108267;28;20215;-84
2021/01/03 03:22:10;;;;;;;17.27;13.23;;;5.90;95.90;;;;;;5107879;28;20602;-84
2021/01/03 03:24:36;;;;;;;15.77;12.37;;;5.80;96.10;;;;;;5110871;28;20179;-85
2021/01/03 03:27:05;;;;;;;17.93;14.83;;;5.70;96.30;;;;;;5110020;28;20723;-84
2021/01/03 03:29:35;;;;;;;17.52;14.30;;;5.70;96.50;;;;;;5108013;28;20230;-84
2021/01/03 03:32:03;;;;;;;19.38;15.50;;;5.70;96.70;;;;;;5107520;28;20196;-84
2021/01/03 03:34:29;;;;;;;20.73;16.35;;;5.70;96.70;;;;;;5108285;28;20172;-84
2021/01/03 03:36:58;;;;;;;19.33;15.40;;;5.80;96.80;;;;;;5108875;28;20232;-83
2021/01/03 03:39:36;;;;;;;21.55;16.98;;;5.80;96.80;;;;;;5089168;28;20798;-84
2021/01/03 03:42:02;;;;;;;19.40;15.75;;;5.70;97.10;;;;;;5087946;28;20180;-83
2021/01/03 03:44:31;;;;;;;20.13;15.63;;;5.80;97.10;;;;;;5087648;28;20180;-84
2021/01/03 03:47:03;;;;;;;22.52;17.27;;;5.80;96.90;;;;;;5085919;28;20303;-85
2021/01/03 03:49:34;;;;;;;22.70;17.35;;;5.90;96.80;;;;;;5088775;28;20234;-85
2021/01/03 03:52:02;;;;;;;24.83;17.95;;;5.90;96.90;;;;;;5089403;28;20192;-83
2021/01/03 03:54:28;;;;;;;19.30;15.82;;;6.00;96.90;;;;;;5087915;28;20246;-84
2021/01/03 03:57:03;;;;;;;26.33;20.77;;;5.90;97.10;;;;;;5087826;28;20184;-85
2021/01/03 03:59:32;;;;;;;42.95;24.55;;;6.00;96.90;;;;;;5089143;28;20616;-84
2021/01/03 04:02:01;;;;;;;38.05;23.92;;;6.00;97.00;;;;;;5089706;28;20219;-85
2021/01/03 04:04:29;;;;;;;37.20;23.58;;;6.00;97.00;;;;;;5087838;28;20588;-84
2021/01/03 04:06:57;;;;;;;33.60;22.02;;;6.00;97.20;;;;;;5092994;28;20295;-85
2021/01/03 04:09:26;;;;;;;34.53;23.40;;;6.00;97.00;;;;;;5093073;28;20663;-84
2021/01/03 04:11:52;;;;;;;23.60;18.15;;;6.00;97.30;;;;;;5093590;28;20365;-84
2021/01/03 04:14:31;;;;;;;24.92;18.67;;;6.00;97.10;;;;;;5092187;28;20235;-84
2021/01/03 04:17:00;;;;;;;25.23;19.23;;;6.10;97.10;;;;;;5092470;28;20180;-83
2021/01/03 04:19:29;;;;;;;24.35;18.65;;;6.10;97.10;;;;;;5088828;28;20180;-84
2021/01/03 04:22:04;;;;;;;22.60;17.88;;;6.10;97.00;;;;;;5091763;28;20176;-84
2021/01/03 04:24:35;;;;;;;27.98;20.70;;;6.00;97.20;;;;;;5091058;28;20171;-84
2021/01/03 04:27:06;;;;;;;30.83;22.00;;;6.10;97.30;;;;;;5092247;28;20291;-84
2021/01/03 04:29:32;;;;;;;28.42;20.48;;;6.10;97.30;;;;;;5092376;28;20186;-83
2021/01/03 04:32:10;;;;;;;28.55;21.13;;;6.00;97.60;;;;;;5092351;28;20199;-84
2021/01/03 04:34:45;;;;;;;27.67;20.67;;;6.00;97.70;;;;;;5095919;28;20166;-84
2021/01/03 04:37:15;;;;;;;25.67;20.20;;;6.00;97.80;;;;;;5113113;28;20194;-85
2021/01/03 04:39:47;;;;;;;30.45;20.60;;;6.00;97.90;;;;;;5090472;28;20178;-84
2021/01/03 04:42:17;;;;;;;30.40;20.88;;;6.00;98.10;;;;;;5090760;28;20720;-85
2021/01/03 04:45:07;;;;;;;31.80;21.05;;;6.10;98.00;;;;;;5090084;28;20195;-84
2021/01/03 04:47:53;;;;;;;26.20;19.63;;;6.00;98.10;;;;;;5091117;28;20571;-84
2021/01/03 04:50:49;;;;;;;26.58;21.00;;;6.10;98.00;;;;;;5090788;28;20221;-83
2021/01/03 04:53:53;;;;;;;30.67;20.95;;;6.10;98.00;;;;;;5089246;28;20220;-84
2021/01/03 04:56:35;;;;;;;28.73;20.42;;;6.10;98.00;;;;;;5089873;28;20649;-84
2021/01/03 04:59:23;;;;;;;34.30;22.30;;;6.20;98.10;;;;;;5090848;28;20191;-84
2021/01/03 05:02:11;;;;;;;29.83;20.25;;;6.20;98.00;;;;;;5089292;28;20185;-84
2021/01/03 05:04:55;;;;;;;34.70;21.75;;;6.20;98.10;;;;;;5088780;28;20177;-84
2021/01/03 05:07:45;;;;;;;29.13;21.55;;;6.20;97.90;;;;;;5088572;28;20212;-84
2021/01/03 05:10:19;;;;;;;32.03;21.52;;;6.20;98.00;;;;;;5090600;28;20239;-84
2021/01/03 05:12:59;;;;;;;28.27;21.52;;;6.20;98.00;;;;;;5088806;28;20176;-84
2021/01/03 05:15:29;;;;;;;28.05;20.45;;;6.20;97.90;;;;;;5087883;28;20269;-83
2021/01/03 05:17:54;;;;;;;33.72;21.70;;;6.20;97.90;;;;;;5090350;28;20180;-84
2021/01/03 05:20:20;;;;;;;29.03;20.20;;;6.30;97.90;;;;;;5090308;28;20527;-84
2021/01/03 05:22:49;;;;;;;29.60;21.97;;;6.20;97.90;;;;;;5089020;28;20233;-84
2021/01/03 05:25:17;;;;;;;28.50;20.67;;;6.20;98.00;;;;;;5089522;28;20763;-84
2021/01/03 05:28:07;;;;;;;31.00;21.65;;;6.20;98.10;;;;;;5090079;28;20208;-84
2021/01/03 05:30:38;;;;;;;29.45;22.30;;;6.30;98.00;;;;;;5090143;28;20153;-84
2021/01/03 05:33:16;;;;;;;28.60;20.95;;;6.30;98.00;;;;;;5089570;28;20680;-84
2021/01/03 05:35:44;;;;;;;30.10;20.77;;;6.30;98.10;;;;;;5102514;28;20187;-84
2021/01/03 05:38:12;;;;;;;29.23;21.95;;;6.20;98.30;;;;;;5103186;28;20184;-84
2021/01/03 05:40:43;;;;;;;33.35;23.38;;;6.20;98.40;;;;;;5087545;28;20215;-84
2021/01/03 05:43:25;;;;;;;26.88;21.08;;;6.30;98.40;;;;;;5090006;28;20173;-84
2021/01/03 05:46:19;;;;;;;31.75;22.67;;;6.20;98.40;;;;;;5089967;28;20206;-84
2021/01/03 05:48:59;;;;;;;34.38;22.25;;;6.20;98.40;;;;;;5088866;28;20180;-84
2021/01/03 05:51:49;;;;;;;33.97;22.80;;;6.20;98.40;;;;;;5090328;28;20532;-84
2021/01/03 05:54:39;;;;;;;30.77;20.90;;;6.40;98.00;;;;;;5089561;28;20685;-84
2021/01/03 05:57:34;;;;;;;32.35;21.70;;;6.20;98.40;;;;;;5089009;28;20290;-84
2021/01/03 06:00:24;;;;;;;26.33;21.00;;;6.40;98.00;;;;;;5084791;28;20188;-85
2021/01/03 06:02:51;;;;;;;31.05;24.25;;;6.40;98.00;;;;;;5090192;28;20188;-85
2021/01/03 06:05:24;;;;;;;30.92;24.70;;;6.40;97.90;;;;;;5088745;28;20503;-83
2021/01/03 06:08:19;;;;;;;28.60;20.52;;;6.50;97.80;;;;;;5088594;28;20753;-83
2021/01/03 06:10:51;;;;;;;25.30;18.85;;;6.40;98.10;;;;;;5079324;28;20184;-84
2021/01/03 06:13:22;;;;;;;33.58;24.55;;;6.40;98.00;;;;;;5087681;28;20641;-85
2021/01/03 06:16:04;;;;;;;36.50;22.20;;;6.50;97.70;;;;;;5089954;28;20505;-84
2021/01/03 06:18:40;;;;;;;22.98;17.70;;;6.50;97.60;;;;;;5089093;28;20164;-84
2021/01/03 06:21:24;;;;;;;26.17;19.30;;;6.50;97.80;;;;;;5088892;28;20191;-84
2021/01/03 06:24:04;;;;;;;27.85;19.13;;;6.50;97.60;;;;;;5088709;28;20172;-85
2021/01/03 06:26:40;;;;;;;27.38;19.70;;;6.50;97.70;;;;;;5089494;28;20684;-84
2021/01/03 06:29:31;;;;;;;23.23;18.55;;;6.50;97.50;;;;;;5087431;28;20207;-84
2021/01/03 06:32:17;;;;;;;26.92;20.25;;;6.50;97.60;;;;;;5088296;28;20190;-84
2021/01/03 06:34:59;;;;;;;26.65;18.73;;;6.60;97.50;;;;;;5073042;28;20252;-84
2021/01/03 06:37:54;;;;;;;29.40;19.98;;;6.60;97.50;;;;;;5109562;28;20263;-85
2021/01/03 06:40:35;;;;;;;23.77;18.83;;;6.60;97.30;;;;;;5087557;28;20176;-84
2021/01/03 06:43:10;;;;;;;23.15;18.63;;;6.60;97.40;;;;;;5089598;28;20164;-84
2021/01/03 06:46:06;;;;;;;24.63;18.10;;;6.60;97.40;;;;;;5086592;28;20215;-84
2021/01/03 06:49:03;;;;;;;25.00;18.77;;;6.60;97.30;;;;;;5088048;28;20165;-84
2021/01/03 06:52:02;;;;;;;23.88;18.63;;;6.70;97.20;;;;;;5090345;28;20559;-84
2021/01/03 06:55:03;;;;;;;30.08;18.83;;;6.80;96.90;;;;;;5086824;28;20281;-84
2021/01/03 06:57:47;;;;;;;24.38;17.73;;;6.70;97.30;;;;;;5088745;28;20183;-84
2021/01/03 07:00:20;;;;;;;24.10;18.40;;;6.60;97.70;;;;;;5089464;28;20160;-83
2021/01/03 07:02:52;;;;;;;26.65;18.33;;;6.70;97.60;;;;;;5086165;28;20287;-85
2021/01/03 07:05:24;;;;;;;23.25;18.83;;;6.80;97.60;;;;;;5088659;28;20168;-84
2021/01/03 07:08:09;;;;;;;25.10;17.38;;;6.80;97.60;;;;;;5087407;28;20680;-84
2021/01/03 07:10:49;;;;;;;22.40;16.20;;;6.80;97.60;;;;;;5088329;28;20176;-84
2021/01/03 07:13:27;;;;;;;22.25;17.08;;;6.80;97.80;;;;;;5087170;28;20172;-85
2021/01/03 07:15:54;;;;;;;22.10;17.20;;;6.80;97.70;;;;;;5088992;28;20180;-84
2021/01/03 07:18:29;;;;;;;22.65;17.98;;;6.90;97.70;;;;;;5087851;28;20573;-84
2021/01/03 07:21:35;;;;;;;23.83;18.77;;;6.90;97.60;;;;;;5088765;28;20636;-84
2021/01/03 07:24:34;;;;;;;26.50;17.75;;;7.00;97.50;;;;;;5089564;28;20245;-84
2021/01/03 07:27:30;;;;;;;21.20;17.20;;;7.00;97.60;;;;;;5088644;28;20329;-84
2021/01/03 07:29:55;;;;;;;22.40;16.60;;;6.90;97.90;;;;;;5089197;28;20568;-85
2021/01/03 07:32:22;;;;;;;23.40;18.00;;;7.00;97.90;;;;;;5087478;28;20215;-84
2021/01/03 07:34:54;;;;;;;22.70;17.85;;;7.00;97.90;;;;;;5092128;28;20184;-84
2021/01/03 07:37:25;;;;;;;20.88;16.88;;;7.10;97.60;;;;;;5108729;28;20192;-84
2021/01/03 07:40:03;;;;;;;17.88;15.48;;;7.20;97.50;;;;;;5088891;28;20164;-84
2021/01/03 07:42:47;;;;;;;18.27;15.48;;;7.00;97.80;;;;;;5088780;28;20176;-85
2021/01/03 07:45:13;;;;;;;27.10;16.45;;;7.20;97.40;;;;;;5088446;28;20269;-85
2021/01/03 07:47:41;;;;;;;20.07;14.70;;;7.30;97.30;;;;;;5087344;28;20253;-84
2021/01/03 07:50:39;;;;;;;20.00;15.40;;;7.30;97.40;;;;;;5085453;28;20203;-84
2021/01/03 07:53:34;;;;;;;15.52;12.77;;;7.20;97.90;;;;;;5088939;28;20169;-84
2021/01/03 07:56:25;;;;;;;17.77;13.88;;;7.20;97.80;;;;;;5088355;28;20198;-85
2021/01/03 07:58:53;;;;;;;15.10;12.82;;;7.40;97.50;;;;;;5088002;28;20163;-84
2021/01/03 08:01:22;;;;;;;16.33;13.48;;;7.40;97.40;;;;;;5087136;28;20192;-84
2021/01/03 08:03:53;;;;;;;16.60;14.85;;;7.40;97.60;;;;;;5087909;28;20184;-85
2021/01/03 08:06:24;;;;;;;15.70;13.85;;;7.50;97.60;;;;;;5086783;28;20306;-85
2021/01/03 08:08:58;;;;;;;17.80;12.20;;;7.50;97.30;;;;;;5088221;28;20168;-85
2021/01/03 08:11:36;;;;;;;16.65;14.52;;;7.50;97.50;;;;;;5087363;28;20180;-84
2021/01/03 08:14:09;;;;;;;15.75;13.43;;;7.50;97.60;;;;;;5088056;28;20176;-84
2021/01/03 08:16:38;;;;;;;17.45;14.30;;;7.40;98.00;;;;;;5088498;28;20180;-85
2021/01/03 08:19:06;;;;;;;15.73;14.23;;;7.50;97.50;;;;;;5088178;28;20176;-85
2021/01/03 08:21:40;;;;;;;15.07;12.90;;;7.60;97.50;;;;;;5088075;28;20275;-84
2021/01/03 08:24:15;;;;;;;14.68;13.25;;;7.40;98.10;;;;;;5085772;28;20633;-84
2021/01/03 08:26:50;;;;;;;13.73;12.43;;;7.50;97.80;;;;;;5087932;28;20203;-84
2021/01/03 08:29:38;;;;;;;14.25;11.27;;;7.50;97.80;;;;;;5088761;28;20152;-83
2021/01/03 08:32:18;;;;;;;17.40;12.55;;;7.70;97.50;;;;;;5086779;28;20758;-84
2021/01/03 08:34:46;;;;;;;11.68;9.85;;;7.60;97.90;;;;;;5095136;28;20675;-84
2021/01/03 08:37:26;;;;;;;13.57;10.30;;;7.60;97.70;;;;;;5107602;28;20202;-83
2021/01/03 08:39:56;;;;;;;12.70;11.20;;;7.70;97.50;;;;;;5086635;28;20172;-84
2021/01/03 08:42:34;;;;;;;14.90;11.43;;;7.70;97.20;;;;;;5088236;28;20184;-84
2021/01/03 08:45:01;;;;;;;11.57;10.35;;;7.70;97.10;;;;;;5088291;28;20192;-84
2021/01/03 08:47:34;;;;;;;11.45;10.30;;;7.90;96.70;;;;;;5087750;28;20204;-84
2021/01/03 08:50:25;;;;;;;12.32;11.10;;;7.90;96.70;;;;;;5088205;28;20191;-84
2021/01/03 08:53:02;;;;;;;11.27;10.20;;;7.60;97.20;;;;;;5090915;28;20196;-84
2021/01/03 08:55:32;;;;;;;11.25;9.57;;;7.60;97.40;;;;;;5089723;28;20220;-85
2021/01/03 08:58:01;;;;;;;9.73;8.73;;;7.70;97.30;;;;;;5090586;28;20221;-84
2021/01/03 09:00:35;;;;;;;11.57;9.75;;;7.80;97.20;;;;;;5090454;28;20175;-84
2021/01/03 09:03:09;;;;;;;11.63;10.35;;;7.80;97.00;;;;;;5091310;28;20193;-84
2021/01/03 09:05:39;;;;;;;11.27;9.48;;;7.90;96.40;;;;;;5089511;28;20635;-84
2021/01/03 09:08:14;;;;;;;11.27;9.52;;;7.90;96.50;;;;;;5090865;28;20187;-84
2021/01/03 09:10:42;;;;;;;10.80;8.50;;;7.90;96.80;;;;;;5091574;28;20171;-84
2021/01/03 09:13:23;;;;;;;10.93;9.80;;;8.00;96.30;;;;;;5089916;28;20180;-84
2021/01/03 09:16:01;;;;;;;9.88;8.88;;;8.10;96.20;;;;;;5090856;28;20176;-84
2021/01/03 09:18:54;;;;;;;9.23;8.32;;;8.10;96.20;;;;;;5089939;28;20191;-85
2021/01/03 09:21:20;;;;;;;7.90;7.20;;;8.30;96.10;;;;;;5090749;28;20177;-84
2021/01/03 09:23:56;;;;;;;7.50;6.80;;;8.30;95.70;;;;;;5089278;28;20329;-84
2021/01/03 09:26:23;;;;;;;8.43;6.97;;;8.60;95.30;;;;;;5090676;28;20620;-84
2021/01/03 09:28:49;;;;;;;8.15;6.90;;;8.80;94.50;;;;;;5089602;28;20177;-85
2021/01/03 09:31:25;;;;;;;7.33;6.43;;;9.00;93.90;;;;;;5090966;28;20251;-84
2021/01/03 09:34:09;;;;;;;9.52;6.50;;;9.10;94.40;;;;;;5089651;28;20181;-84
2021/01/03 09:37:00;;;;;;;8.18;6.95;;;9.50;93.40;;;;;;5089119;28;20238;-84
2021/01/03 09:39:36;;;;;;;9.55;7.18;;;9.70;92.30;;;;;;5108277;28;20254;-84
2021/01/03 09:42:51;;;;;;;7.00;6.30;;;9.60;92.40;;;;;;5103961;28;20283;-84
2021/01/03 09:45:32;;;;;;;8.93;7.90;;;9.40;93.00;;;;;;5108543;28;20176;-84
2021/01/03 09:48:06;;;;;;;9.68;8.68;;;9.10;93.40;;;;;;5109635;28;20214;-85
2021/01/03 09:50:56;;;;;;;7.20;6.60;;;9.00;93.70;;;;;;5110935;27;20156;-84
2021/01/03 09:53:35;;;;;;;10.02;8.10;;;9.10;93.40;;;;;;5105443;28;20759;-85
2021/01/03 09:56:01;;;;;;;9.02;8.13;;;8.90;93.80;;;;;;5107198;28;20567;-84
2021/01/03 09:58:41;;;;;;;10.77;8.47;;;8.80;94.10;;;;;;5108762;28;20186;-84
2021/01/03 10:01:27;;;;;;;9.70;8.23;;;8.70;95.00;;;;;;5107966;28;20188;-84
2021/01/03 10:03:53;;;;;;;9.32;7.90;;;8.90;94.40;;;;;;5110611;28;20612;-85
2021/01/03 10:06:37;;;;;;;7.75;7.05;;;9.00;93.90;;;;;;5108847;28;20255;-84
2021/01/03 10:09:07;;;;;;;9.35;8.45;;;8.90;94.50;;;;;;5109006;28;20167;-84
2021/01/03 10:11:33;;;;;;;8.52;7.72;;;9.00;94.00;;;;;;5110543;28;20258;-85
2021/01/03 10:14:10;;;;;;;8.80;7.90;;;8.80;94.50;;;;;;5109130;28;20263;-85
2021/01/03 10:16:38;;;;;;;9.68;8.65;;;8.90;95.10;;;;;;5109438;27;20402;-85
2021/01/03 10:19:18;;;;;;;9.02;8.10;;;9.00;94.10;;;;;;5110642;27;20241;-85
2021/01/03 10:21:48;;;;;;;9.60;8.80;;;8.90;94.70;;;;;;5108553;28;20248;-84
2021/01/03 10:24:25;;;;;;;8.50;7.53;;;9.00;94.50;;;;;;5109362;28;20172;-85
2021/01/03 10:27:02;;;;;;;8.50;7.18;;;9.00;94.40;;;;;;5108997;28;20215;-84
2021/01/03 10:29:37;;;;;;;9.13;8.27;;;8.90;94.60;;;;;;5110543;28;20201;-85
2021/01/03 10:32:09;;;;;;;9.80;7.82;;;9.10;94.20;;;;;;5110091;28;20199;-84
2021/01/03 10:34:35;;;;;;;10.82;9.00;;;9.10;94.20;;;;;;5109189;28;20176;-85
2021/01/03 10:37:13;;;;;;;12.13;10.85;;;9.10;94.30;;;;;;5106711;28;20539;-85
2021/01/03 10:39:42;;;;;;;10.98;8.52;;;9.00;94.30;;;;;;5109509;28;20203;-85
2021/01/03 10:42:11;;;;;;;10.02;8.27;;;9.00;94.50;;;;;;5108592;28;20186;-85
2021/01/03 10:44:40;;;;;;;9.43;8.45;;;8.80;95.00;;;;;;5108181;28;20207;-84
2021/01/03 10:47:05;;;;;;;10.60;8.07;;;8.90;94.70;;;;;;5109880;28;20222;-85
2021/01/03 10:49:31;;;;;;;11.80;9.20;;;8.90;95.00;;;;;;5106180;28;20179;-84
2021/01/03 10:52:00;;;;;;;9.23;8.33;;;8.90;94.60;;;;;;5102857;28;20189;-84
2021/01/03 10:54:28;;;;;;;9.05;8.15;;;9.00;94.40;;;;;;5104775;28;20423;-84
2021/01/03 10:57:00;;;;;;;11.48;9.50;;;9.10;94.40;;;;;;5106256;28;20642;-84
2021/01/03 10:59:26;;;;;;;11.02;9.07;;;9.00;94.60;;;;;;5107241;28;20245;-84
2021/01/03 11:01:52;;;;;;;10.40;9.35;;;9.10;94.50;;;;;;5107268;28;20183;-84
2021/01/03 11:04:25;;;;;;;10.15;8.95;;;9.10;94.80;;;;;;5105626;28;20183;-85
2021/01/03 11:06:54;;;;;;;10.40;9.45;;;9.10;94.70;;;;;;5104361;28;20227;-85
2021/01/03 11:09:23;;;;;;;11.27;9.68;;;9.20;94.50;;;;;;5108543;28;20176;-84
2021/01/03 11:12:00;;;;;;;13.73;10.77;;;9.20;94.90;;;;;;5107527;28;20291;-84
2021/01/03 11:14:35;;;;;;;11.05;9.93;;;9.20;94.50;;;;;;5108653;28;20626;-84
2021/01/03 11:17:06;;;;;;;13.25;11.35;;;9.30;94.30;;;;;;5107620;28;20183;-85
2021/01/03 11:19:50;;;;;;;11.75;10.75;;;9.20;94.40;;;;;;5109578;28;20164;-84
2021/01/03 11:22:16;;;;;;;12.18;10.98;;;9.20;94.60;;;;;;5109022;28;20218;-85
2021/01/03 11:24:45;;;;;;;10.55;9.30;;;9.20;94.60;;;;;;5108054;28;20229;-80
2021/01/03 11:27:26;;;;;;;10.73;9.73;;;9.20;94.90;;;;;;5110189;28;20204;-81
2021/01/03 11:29:52;;;;;;;11.45;10.25;;;9.30;94.50;;;;;;5107753;28;20184;-81
2021/01/03 11:32:21;;;;;;;13.25;10.63;;;9.20;94.40;;;;;;5109499;28;20679;-81
2021/01/03 11:34:52;;;;;;;12.20;9.63;;;9.20;94.40;;;;;;5107293;28;20180;-81
2021/01/03 11:37:25;;;;;;;11.38;9.88;;;9.20;94.60;;;;;;5107501;28;20194;-80
2021/01/03 11:39:51;;;;;;;11.73;9.82;;;9.10;94.80;;;;;;5107744;28;20159;-80
2021/01/03 11:42:36;;;;;;;11.55;9.65;;;9.30;94.60;;;;;;5107851;28;20697;-80
2021/01/03 11:45:14;;;;;;;10.70;9.23;;;9.30;94.40;;;;;;5109621;28;20262;-80
2021/01/03 11:47:46;;;;;;;11.93;10.73;;;9.60;93.80;;;;;;5109851;28;20289;-85
2021/01/03 11:50:22;;;;;;;12.10;10.90;;;9.50;93.80;;;;;;5111402;28;20163;-85
2021/01/03 11:52:54;;;;;;;11.63;9.20;;;9.50;93.90;;;;;;5110651;28;20194;-80
2021/01/03 11:55:26;;;;;;;11.88;10.10;;;9.50;94.30;;;;;;5097457;28;20216;-79
2021/01/03 11:57:54;;;;;;;12.20;10.65;;;9.60;94.10;;;;;;5088053;28;20318;-80
2021/01/03 12:00:20;;;;;;;11.43;9.70;;;9.60;93.80;;;;;;5087577;28;20585;-79
2021/01/03 12:02:48;;;;;;;11.80;9.90;;;9.70;93.60;;;;;;5087300;28;20325;-79
2021/01/03 12:05:22;;;;;;;12.40;11.10;;;9.80;93.60;;;;;;5089164;28;20180;-79
2021/01/03 12:07:50;;;;;;;15.98;13.25;;;9.80;93.70;;;;;;5095545;28;20302;-80
2021/01/03 12:10:19;;;;;;;15.95;12.52;;;9.90;93.70;;;;;;5094802;28;20164;-79
2021/01/03 12:12:44;;;;;;;12.30;10.20;;;9.90;93.90;;;;;;5092547;28;20544;-80
2021/01/03 12:15:19;;;;;;;12.07;8.70;;;10.00;93.20;;;;;;5108069;28;20175;-79
2021/01/03 12:17:45;;;;;;;10.55;9.50;;;10.30;92.60;;;;;;5102303;28;20273;-79
2021/01/03 12:20:16;;;;;;;10.07;8.83;;;10.70;92.00;;;;;;5107488;28;20622;-80
2021/01/03 12:22:45;;;;;;;10.45;9.43;;;11.00;91.80;;;;;;5094971;28;20291;-79
2021/01/03 12:25:11;;;;;;;13.38;11.52;;;11.20;90.20;;;;;;5105254;28;20245;-79
2021/01/03 12:27:37;;;;;;;10.20;9.32;;;11.30;89.30;;;;;;5110713;28;20226;-79
2021/01/03 12:30:16;;;;;;;13.05;9.68;;;11.30;89.00;;;;;;5109449;28;20565;-80
2021/01/03 12:32:47;;;;;;;14.05;12.68;;;11.00;90.30;;;;;;5111801;28;20240;-79
2021/01/03 12:35:31;;;;;;;15.30;11.95;;;11.10;89.90;;;;;;5110639;28;20643;-79
2021/01/03 12:37:59;;;;;;;15.55;13.95;;;11.30;90.10;;;;;;5112602;28;20615;-79
2021/01/03 12:40:28;;;;;;;12.75;11.07;;;11.40;88.30;;;;;;5102545;28;20191;-79
2021/01/03 12:42:53;;;;;;;12.40;11.15;;;11.60;88.10;;;;;;5108659;28;20779;-79
2021/01/03 12:45:25;;;;;;;12.93;10.43;;;11.50;88.20;;;;;;5111968;28;20295;-80
2021/01/03 12:47:50;;;;;;;14.73;10.00;;;11.60;86.80;;;;;;5112140;28;20204;-81
2021/01/03 12:50:16;;;;;;;13.17;11.73;;;11.60;87.60;;;;;;5111788;28;20183;-81
2021/01/03 12:52:44;;;;;;;11.20;9.83;;;11.40;89.70;;;;;;5112353;28;20275;-81
2021/01/03 12:55:16;;;;;;;11.50;10.20;;;11.50;88.20;;;;;;5111556;28;20223;-81
2021/01/03 12:57:42;;;;;;;14.70;11.27;;;11.40;88.60;;;;;;5112134;28;20176;-81
2021/01/03 13:00:11;;;;;;;12.30;11.07;;;11.40;87.80;;;;;;5109559;28;20686;-80
2021/01/03 13:02:36;;;;;;;12.68;11.38;;;11.30;87.20;;;;;;5111460;28;20254;-81
2021/01/03 13:05:03;;;;;;;11.63;10.53;;;11.10;88.00;;;;;;5110255;28;20193;-81
2021/01/03 13:07:31;;;;;;;10.52;9.40;;;11.00;88.80;;;;;;5110897;28;20212;-81
2021/01/03 13:09:59;;;;;;;10.38;9.38;;;11.00;89.10;;;;;;5110972;28;20176;-81
2021/01/03 13:12:34;;;;;;;12.15;10.20;;;11.00;89.00;;;;;;5111486;28;20188;-81
2021/01/03 13:14:59;;;;;;;13.27;11.88;;;10.90;89.30;;;;;;5111687;28;20174;-80
2021/01/03 13:17:25;;;;;;;13.10;11.40;;;11.00;89.00;;;;;;5106873;28;20184;-81